sensor_id;sensor_type;location;lat;lon;timestamp;pressure;altitude;pressure_sealevel;temperature;humidity
41703;BME280;861;48.808;9.006;2024-03-02T00:00:23;95940.84;;;8.24;76.83
41703;BME280;861;48.808;9.006;2024-03-02T00:02:56;95936.47;;;8.44;76.14
41703;BME280;861;48.808;9.006;2024-03-02T00:05:23;95934.63;;;8.31;76.86
41703;BME280;861;48.808;9.006;2024-03-02T00:07:58;95935.41;;;8.28;76.97
41703;BME280;861;48.808;9.006;2024-03-02T00:10:37;95936.19;;;8.32;76.58
41703;BME280;861;48.808;9.006;2024-03-02T00:13:09;95935.97;;;7.95;77.60
41703;BME280;861;48.808;9.006;2024-03-02T00:15:52;95937.53;;;7.92;78.20
41703;BME280;861;48.808;9.006;2024-03-02T00:20:59;95942.50;;;8.04;77.45
41703;BME280;861;48.808;9.006;2024-03-02T00:23:35;95938.13;;;8.28;77.17
41703;BME280;861;48.808;9.006;2024-03-02T00:26:02;95945.50;;;8.20;77.53
41703;BME280;861;48.808;9.006;2024-03-02T00:28:35;95934.41;;;7.97;77.76
41703;BME280;861;48.808;9.006;2024-03-02T00:31:11;95934.50;;;7.79;79.35
41703;BME280;861;48.808;9.006;2024-03-02T00:33:49;95934.84;;;7.85;79.37
41703;BME280;861;48.808;9.006;2024-03-02T00:36:26;95928.69;;;7.81;78.49
41703;BME280;861;48.808;9.006;2024-03-02T00:38:55;95934.88;;;7.78;79.67
41703;BME280;861;48.808;9.006;2024-03-02T00:41:30;95934.03;;;7.92;79.10
41703;BME280;861;48.808;9.006;2024-03-02T00:44:14;95933.22;;;8.02;78.51
41703;BME280;861;48.808;9.006;2024-03-02T00:46:48;95932.53;;;7.83;79.10
41703;BME280;861;48.808;9.006;2024-03-02T00:49:33;95930.91;;;7.97;78.67
41703;BME280;861;48.808;9.006;2024-03-02T00:52:00;95937.38;;;8.24;77.47
41703;BME280;861;48.808;9.006;2024-03-02T00:54:28;95931.97;;;8.13;78.64
41703;BME280;861;48.808;9.006;2024-03-02T00:56:57;95930.44;;;8.16;78.24
41703;BME280;861;48.808;9.006;2024-03-02T00:59:27;95926.16;;;8.18;78.28
41703;BME280;861;48.808;9.006;2024-03-02T01:02:01;95932.75;;;8.14;77.46
41703;BME280;861;48.808;9.006;2024-03-02T01:04:28;95931.91;;;8.31;77.94
41703;BME280;861;48.808;9.006;2024-03-02T01:06:55;95932.31;;;8.26;77.86
41703;BME280;861;48.808;9.006;2024-03-02T01:09:22;95935.00;;;8.33;77.16
41703;BME280;861;48.808;9.006;2024-03-02T01:11:49;95937.50;;;8.64;75.83
41703;BME280;861;48.808;9.006;2024-03-02T01:14:16;95935.56;;;8.65;75.84
41703;BME280;861;48.808;9.006;2024-03-02T01:16:42;95941.72;;;8.69;76.00
41703;BME280;861;48.808;9.006;2024-03-02T01:19:09;95939.00;;;8.69;75.78
41703;BME280;861;48.808;9.006;2024-03-02T01:21:36;95935.84;;;8.77;75.26
41703;BME280;861;48.808;9.006;2024-03-02T01:24:03;95942.81;;;8.75;75.31
41703;BME280;861;48.808;9.006;2024-03-02T01:26:29;95943.47;;;8.93;74.70
41703;BME280;861;48.808;9.006;2024-03-02T01:28:57;95936.03;;;9.00;74.43
41703;BME280;861;48.808;9.006;2024-03-02T01:31:23;95941.56;;;8.90;74.48
41703;BME280;861;48.808;9.006;2024-03-02T01:33:50;95940.44;;;8.84;74.94
41703;BME280;861;48.808;9.006;2024-03-02T01:36:19;95928.78;;;8.87;74.64
41703;BME280;861;48.808;9.006;2024-03-02T01:38:46;95927.56;;;8.95;74.44
41703;BME280;861;48.808;9.006;2024-03-02T01:41:13;95926.97;;;8.70;75.28
41703;BME280;861;48.808;9.006;2024-03-02T01:43:43;95924.31;;;8.66;75.60
41703;BME280;861;48.808;9.006;2024-03-02T01:46:10;95924.84;;;8.47;75.94
41703;BME280;861;48.808;9.006;2024-03-02T01:48:36;95920.16;;;8.48;76.25
41703;BME280;861;48.808;9.006;2024-03-02T01:51:09;95934.47;;;8.55;76.26
41703;BME280;861;48.808;9.006;2024-03-02T01:53:37;95923.47;;;8.73;75.17
41703;BME280;861;48.808;9.006;2024-03-02T01:56:10;95924.22;;;8.77;75.28
41703;BME280;861;48.808;9.006;2024-03-02T01:58:37;95919.69;;;9.07;73.53
41703;BME280;861;48.808;9.006;2024-03-02T02:01:04;95914.59;;;9.09;73.46
41703;BME280;861;48.808;9.006;2024-03-02T02:03:31;95919.00;;;8.96;74.05
41703;BME280;861;48.808;9.006;2024-03-02T02:05:58;95916.91;;;9.11;73.41
41703;BME280;861;48.808;9.006;2024-03-02T02:08:25;95917.38;;;9.06;73.33
41703;BME280;861;48.808;9.006;2024-03-02T02:10:55;95911.00;;;9.23;72.88
41703;BME280;861;48.808;9.006;2024-03-02T02:13:22;95919.13;;;9.23;72.90
41703;BME280;861;48.808;9.006;2024-03-02T02:15:49;95913.63;;;9.30;72.60
41703;BME280;861;48.808;9.006;2024-03-02T02:18:17;95918.16;;;9.44;71.85
41703;BME280;861;48.808;9.006;2024-03-02T02:20:44;95909.34;;;9.32;72.14
41703;BME280;861;48.808;9.006;2024-03-02T02:23:10;95909.00;;;9.27;72.26
41703;BME280;861;48.808;9.006;2024-03-02T02:25:39;95915.91;;;8.94;73.16
41703;BME280;861;48.808;9.006;2024-03-02T02:28:09;95913.81;;;8.68;74.41
41703;BME280;861;48.808;9.006;2024-03-02T02:30:36;95917.78;;;8.57;75.24
41703;BME280;861;48.808;9.006;2024-03-02T02:33:03;95909.69;;;8.50;75.34
41703;BME280;861;48.808;9.006;2024-03-02T02:35:30;95903.56;;;8.39;75.67
41703;BME280;861;48.808;9.006;2024-03-02T02:37:58;95902.50;;;8.26;76.77
41703;BME280;861;48.808;9.006;2024-03-02T02:40:25;95896.41;;;8.04;77.27
41703;BME280;861;48.808;9.006;2024-03-02T02:42:52;95903.97;;;7.68;78.13
41703;BME280;861;48.808;9.006;2024-03-02T02:45:19;95895.09;;;7.61;78.82
41703;BME280;861;48.808;9.006;2024-03-02T02:47:52;95893.94;;;7.58;79.82
41703;BME280;861;48.808;9.006;2024-03-02T02:50:18;95882.38;;;7.47;79.58
41703;BME280;861;48.808;9.006;2024-03-02T02:52:45;95897.09;;;7.36;80.89
41703;BME280;861;48.808;9.006;2024-03-02T02:55:14;95892.13;;;7.24;80.81
41703;BME280;861;48.808;9.006;2024-03-02T02:57:43;95890.94;;;7.32;81.54
41703;BME280;861;48.808;9.006;2024-03-02T03:00:13;95894.66;;;7.66;79.74
41703;BME280;861;48.808;9.006;2024-03-02T03:02:50;95892.81;;;7.45;81.27
41703;BME280;861;48.808;9.006;2024-03-02T03:05:18;95895.13;;;7.54;81.01
41703;BME280;861;48.808;9.006;2024-03-02T03:07:45;95893.22;;;7.47;80.98
41703;BME280;861;48.808;9.006;2024-03-02T03:10:12;95892.81;;;7.49;81.71
41703;BME280;861;48.808;9.006;2024-03-02T03:12:42;95895.22;;;7.22;82.19
41703;BME280;861;48.808;9.006;2024-03-02T03:15:10;95894.78;;;7.41;81.31
41703;BME280;861;48.808;9.006;2024-03-02T03:17:41;95896.75;;;7.23;82.58
41703;BME280;861;48.808;9.006;2024-03-02T03:20:09;95897.22;;;7.01;83.59
41703;BME280;861;48.808;9.006;2024-03-02T03:22:37;95902.25;;;6.95;84.05
41703;BME280;861;48.808;9.006;2024-03-02T03:25:07;95896.34;;;7.35;82.26
41703;BME280;861;48.808;9.006;2024-03-02T03:27:37;95901.78;;;7.25;81.95
41703;BME280;861;48.808;9.006;2024-03-02T03:30:04;95896.72;;;7.41;81.82
41703;BME280;861;48.808;9.006;2024-03-02T03:32:32;95894.78;;;7.34;81.58
41703;BME280;861;48.808;9.006;2024-03-02T03:34:59;95896.47;;;6.86;84.44
41703;BME280;861;48.808;9.006;2024-03-02T03:37:25;95893.38;;;6.74;85.18
41703;BME280;861;48.808;9.006;2024-03-02T03:39:59;95901.88;;;6.83;84.08
41703;BME280;861;48.808;9.006;2024-03-02T03:42:27;95891.06;;;6.79;85.51
41703;BME280;861;48.808;9.006;2024-03-02T03:44:55;95890.63;;;7.05;82.90
41703;BME280;861;48.808;9.006;2024-03-02T03:47:21;95898.72;;;7.12;82.85
41703;BME280;861;48.808;9.006;2024-03-02T03:49:48;95903.34;;;7.19;81.95
41703;BME280;861;48.808;9.006;2024-03-02T03:52:15;95908.41;;;7.03;83.61
41703;BME280;861;48.808;9.006;2024-03-02T03:54:41;95893.38;;;6.74;84.76
41703;BME280;861;48.808;9.006;2024-03-02T03:57:09;95897.66;;;6.50;85.65
41703;BME280;861;48.808;9.006;2024-03-02T03:59:35;95894.19;;;6.39;86.43
41703;BME280;861;48.808;9.006;2024-03-02T04:02:04;95893.78;;;6.37;87.13
41703;BME280;861;48.808;9.006;2024-03-02T04:04:31;95882.19;;;6.54;86.16
41703;BME280;861;48.808;9.006;2024-03-02T04:07:01;95884.50;;;6.80;85.26
41703;BME280;861;48.808;9.006;2024-03-02T04:09:27;95879.06;;;6.98;84.46
41703;BME280;861;48.808;9.006;2024-03-02T04:11:54;95883.25;;;7.09;83.24
41703;BME280;861;48.808;9.006;2024-03-02T04:14:23;95886.00;;;6.99;84.03
41703;BME280;861;48.808;9.006;2024-03-02T04:16:50;95893.31;;;7.16;82.44
41703;BME280;861;48.808;9.006;2024-03-02T04:19:17;95898.72;;;7.26;81.60
41703;BME280;861;48.808;9.006;2024-03-02T04:21:44;95900.25;;;7.27;82.07
41703;BME280;861;48.808;9.006;2024-03-02T04:24:13;95896.81;;;7.02;83.47
41703;BME280;861;48.808;9.006;2024-03-02T04:26:40;95892.59;;;6.91;82.89
41703;BME280;861;48.808;9.006;2024-03-02T04:29:07;95896.00;;;7.16;82.41
41703;BME280;861;48.808;9.006;2024-03-02T04:31:34;95892.19;;;6.92;83.59
41703;BME280;861;48.808;9.006;2024-03-02T04:34:00;95890.69;;;6.63;85.22
41703;BME280;861;48.808;9.006;2024-03-02T04:36:27;95893.75;;;6.93;83.05
41703;BME280;861;48.808;9.006;2024-03-02T04:38:54;95890.31;;;6.58;84.82
41703;BME280;861;48.808;9.006;2024-03-02T04:41:20;95890.69;;;6.53;85.67
41703;BME280;861;48.808;9.006;2024-03-02T04:43:47;95884.13;;;6.64;85.28
41703;BME280;861;48.808;9.006;2024-03-02T04:46:14;95889.91;;;6.77;83.79
41703;BME280;861;48.808;9.006;2024-03-02T04:48:41;95894.56;;;6.62;84.96
41703;BME280;861;48.808;9.006;2024-03-02T04:51:11;95892.63;;;6.66;84.63
41703;BME280;861;48.808;9.006;2024-03-02T04:53:37;95885.69;;;6.58;84.12
41703;BME280;861;48.808;9.006;2024-03-02T04:56:05;95899.94;;;6.76;84.02
41703;BME280;861;48.808;9.006;2024-03-02T04:58:50;95892.94;;;7.07;82.51
41703;BME280;861;48.808;9.006;2024-03-02T05:01:19;95906.50;;;6.93;82.21
41703;BME280;861;48.808;9.006;2024-03-02T05:03:46;95901.84;;;7.04;81.73
41703;BME280;861;48.808;9.006;2024-03-02T05:06:13;95900.69;;;7.05;82.01
41703;BME280;861;48.808;9.006;2024-03-02T05:08:40;95893.34;;;7.05;81.61
41703;BME280;861;48.808;9.006;2024-03-02T05:11:06;95894.16;;;6.64;82.82
41703;BME280;861;48.808;9.006;2024-03-02T05:13:51;95899.56;;;6.78;81.96
41703;BME280;861;48.808;9.006;2024-03-02T05:16:18;95898.44;;;6.65;83.48
41703;BME280;861;48.808;9.006;2024-03-02T05:18:45;95903.03;;;6.89;82.01
41703;BME280;861;48.808;9.006;2024-03-02T05:21:11;95906.50;;;6.68;82.78
41703;BME280;861;48.808;9.006;2024-03-02T05:23:39;95908.09;;;6.69;82.82
41703;BME280;861;48.808;9.006;2024-03-02T05:26:06;95913.47;;;6.76;81.29
41703;BME280;861;48.808;9.006;2024-03-02T05:28:33;95902.66;;;6.76;82.24
41703;BME280;861;48.808;9.006;2024-03-02T05:30:59;95911.16;;;6.33;83.89
41703;BME280;861;48.808;9.006;2024-03-02T05:33:26;95921.19;;;6.25;84.74
41703;BME280;861;48.808;9.006;2024-03-02T05:35:53;95913.81;;;6.04;87.54
41703;BME280;861;48.808;9.006;2024-03-02T05:38:20;95920.34;;;5.93;88.28
41703;BME280;861;48.808;9.006;2024-03-02T05:40:48;95921.94;;;6.11;87.91
41703;BME280;861;48.808;9.006;2024-03-02T05:43:17;95921.94;;;6.08;87.81
41703;BME280;861;48.808;9.006;2024-03-02T05:45:47;95929.25;;;6.04;87.63
41703;BME280;861;48.808;9.006;2024-03-02T05:48:14;95927.34;;;6.15;88.04
41703;BME280;861;48.808;9.006;2024-03-02T05:50:43;95932.38;;;6.16;87.61
41703;BME280;861;48.808;9.006;2024-03-02T05:53:09;95943.13;;;5.92;88.50
41703;BME280;861;48.808;9.006;2024-03-02T05:55:36;95932.75;;;6.18;87.16
41703;BME280;861;48.808;9.006;2024-03-02T05:58:03;95932.78;;;6.33;87.22
41703;BME280;861;48.808;9.006;2024-03-02T06:00:35;95923.50;;;6.37;85.87
41703;BME280;861;48.808;9.006;2024-03-02T06:03:03;95924.28;;;6.38;86.19
41703;BME280;861;48.808;9.006;2024-03-02T06:05:33;95933.56;;;6.47;85.02
41703;BME280;861;48.808;9.006;2024-03-02T06:07:59;95932.00;;;6.46;84.53
41703;BME280;861;48.808;9.006;2024-03-02T06:10:29;95927.00;;;6.38;85.65
41703;BME280;861;48.808;9.006;2024-03-02T06:12:56;95927.00;;;6.55;84.69
41703;BME280;861;48.808;9.006;2024-03-02T06:15:25;95925.47;;;6.33;85.23
41703;BME280;861;48.808;9.006;2024-03-02T06:17:52;95925.06;;;6.70;83.31
41703;BME280;861;48.808;9.006;2024-03-02T06:20:18;95922.38;;;6.52;84.04
41703;BME280;861;48.808;9.006;2024-03-02T06:22:45;95932.03;;;6.29;85.28
41703;BME280;861;48.808;9.006;2024-03-02T06:25:12;95933.88;;;6.07;87.16
41703;BME280;861;48.808;9.006;2024-03-02T06:27:39;95930.88;;;6.65;83.15
41703;BME280;861;48.808;9.006;2024-03-02T06:30:06;95935.13;;;6.83;82.92
41703;BME280;861;48.808;9.006;2024-03-02T06:32:34;95943.22;;;6.97;82.57
41703;BME280;861;48.808;9.006;2024-03-02T06:35:04;95942.84;;;6.85;82.55
41703;BME280;861;48.808;9.006;2024-03-02T06:37:33;95938.22;;;6.85;83.24
41703;BME280;861;48.808;9.006;2024-03-02T06:40:07;95943.22;;;6.94;82.42
41703;BME280;861;48.808;9.006;2024-03-02T06:42:35;95942.84;;;6.78;84.21
41703;BME280;861;48.808;9.006;2024-03-02T06:45:24;95945.94;;;6.62;84.34
41703;BME280;861;48.808;9.006;2024-03-02T06:48:09;95944.78;;;6.88;83.55
41703;BME280;861;48.808;9.006;2024-03-02T06:50:41;95947.47;;;6.88;83.25
41703;BME280;861;48.808;9.006;2024-03-02T06:53:09;95945.16;;;6.97;82.76
41703;BME280;861;48.808;9.006;2024-03-02T06:55:49;95943.56;;;7.20;81.99
41703;BME280;861;48.808;9.006;2024-03-02T06:58:16;95945.56;;;6.88;83.25
41703;BME280;861;48.808;9.006;2024-03-02T07:00:44;95945.16;;;6.97;83.40
41703;BME280;861;48.808;9.006;2024-03-02T07:03:19;95945.53;;;6.99;83.06
41703;BME280;861;48.808;9.006;2024-03-02T07:05:52;95952.09;;;7.15;82.47
41703;BME280;861;48.808;9.006;2024-03-02T07:08:24;95950.94;;;7.09;82.83
41703;BME280;861;48.808;9.006;2024-03-02T07:10:55;95955.19;;;7.07;83.19
41703;BME280;861;48.808;9.006;2024-03-02T07:13:28;95956.66;;;7.39;82.32
41703;BME280;861;48.808;9.006;2024-03-02T07:15:54;95957.81;;;7.56;80.43
41703;BME280;861;48.808;9.006;2024-03-02T07:18:33;95948.06;;;7.69;79.59
41703;BME280;861;48.808;9.006;2024-03-02T07:21:00;95955.06;;;7.66;80.67
41703;BME280;861;48.808;9.006;2024-03-02T07:23:28;95949.91;;;7.90;79.26
41703;BME280;861;48.808;9.006;2024-03-02T07:25:54;95952.94;;;8.06;78.15
41703;BME280;861;48.808;9.006;2024-03-02T07:28:26;95951.78;;;8.07;77.77
41703;BME280;861;48.808;9.006;2024-03-02T07:31:12;95954.34;;;7.34;80.75
41703;BME280;861;48.808;9.006;2024-03-02T07:33:39;95950.94;;;7.20;82.39
41703;BME280;861;48.808;9.006;2024-03-02T07:36:06;95954.78;;;7.26;81.00
41703;BME280;861;48.808;9.006;2024-03-02T07:38:33;95957.78;;;7.59;80.22
41703;BME280;861;48.808;9.006;2024-03-02T07:41:01;95958.97;;;7.44;80.41
41703;BME280;861;48.808;9.006;2024-03-02T07:43:29;95954.00;;;7.25;81.89
41703;BME280;861;48.808;9.006;2024-03-02T07:49:38;95966.38;;;7.33;81.86
41703;BME280;861;48.808;9.006;2024-03-02T07:52:51;95965.19;;;7.48;81.17
41703;BME280;861;48.808;9.006;2024-03-02T07:55:23;95970.22;;;7.43;81.15
41703;BME280;861;48.808;9.006;2024-03-02T07:57:51;95960.59;;;7.10;82.49
41703;BME280;861;48.808;9.006;2024-03-02T08:00:18;95967.16;;;7.34;81.38
41703;BME280;861;48.808;9.006;2024-03-02T08:02:45;95963.25;;;7.38;81.88
41703;BME280;861;48.808;9.006;2024-03-02T08:05:12;95967.16;;;7.37;81.39
41703;BME280;861;48.808;9.006;2024-03-02T08:07:39;95963.63;;;7.44;81.19
41703;BME280;861;48.808;9.006;2024-03-02T08:10:06;95962.72;;;7.82;79.83
41703;BME280;861;48.808;9.006;2024-03-02T08:12:33;95965.63;;;7.05;82.29
41703;BME280;861;48.808;9.006;2024-03-02T08:15:00;95960.97;;;7.19;82.92
41703;BME280;861;48.808;9.006;2024-03-02T08:17:27;95943.47;;;7.52;82.05
41703;BME280;861;48.808;9.006;2024-03-02T08:19:54;95949.56;;;7.88;80.71
41703;BME280;861;48.808;9.006;2024-03-02T08:22:21;95952.22;;;7.98;79.90
41703;BME280;861;48.808;9.006;2024-03-02T08:24:49;95953.41;;;7.90;80.57
41703;BME280;861;48.808;9.006;2024-03-02T08:27:15;95950.69;;;7.87;79.56
41703;BME280;861;48.808;9.006;2024-03-02T08:29:42;95951.41;;;8.01;79.35
41703;BME280;861;48.808;9.006;2024-03-02T08:32:09;95949.13;;;7.93;79.77
41703;BME280;861;48.808;9.006;2024-03-02T08:34:35;95953.28;;;8.15;79.46
41703;BME280;861;48.808;9.006;2024-03-02T08:37:02;95948.97;;;8.24;78.97
41703;BME280;861;48.808;9.006;2024-03-02T08:39:30;95951.38;;;8.70;76.25
41703;BME280;861;48.808;9.006;2024-03-02T08:41:56;95953.88;;;8.50;77.13
41703;BME280;861;48.808;9.006;2024-03-02T08:44:23;95946.50;;;8.98;76.39
41703;BME280;861;48.808;9.006;2024-03-02T08:46:51;95951.94;;;8.98;75.93
41703;BME280;861;48.808;9.006;2024-03-02T08:49:17;95950.16;;;9.22;73.47
41703;BME280;861;48.808;9.006;2024-03-02T08:51:44;95952.00;;;8.91;75.26
41703;BME280;861;48.808;9.006;2024-03-02T08:54:10;95965.38;;;9.12;74.91
41703;BME280;861;48.808;9.006;2024-03-02T08:56:37;95949.59;;;9.78;71.39
41703;BME280;861;48.808;9.006;2024-03-02T08:59:04;95952.00;;;9.69;73.09
41703;BME280;861;48.808;9.006;2024-03-02T09:01:31;95955.69;;;9.52;74.73
41703;BME280;861;48.808;9.006;2024-03-02T09:03:58;95946.78;;;9.52;71.90
41703;BME280;861;48.808;9.006;2024-03-02T09:06:25;95950.69;;;9.47;71.43
41703;BME280;861;48.808;9.006;2024-03-02T09:08:51;95949.25;;;9.73;71.21
41703;BME280;861;48.808;9.006;2024-03-02T09:11:18;95946.69;;;9.92;69.68
41703;BME280;861;48.808;9.006;2024-03-02T09:13:45;95940.47;;;10.25;69.28
41703;BME280;861;48.808;9.006;2024-03-02T09:16:12;95940.06;;;10.53;68.62
41703;BME280;861;48.808;9.006;2024-03-02T09:18:38;95934.03;;;10.65;67.28
41703;BME280;861;48.808;9.006;2024-03-02T09:21:05;95939.28;;;11.03;66.77
41703;BME280;861;48.808;9.006;2024-03-02T09:23:32;95931.09;;;11.26;65.75
41703;BME280;861;48.808;9.006;2024-03-02T09:25:58;95930.09;;;10.93;66.57
41703;BME280;861;48.808;9.006;2024-03-02T09:28:25;95921.59;;;11.34;64.70
41703;BME280;861;48.808;9.006;2024-03-02T09:30:52;95923.59;;;11.72;61.91
41703;BME280;861;48.808;9.006;2024-03-02T09:33:19;95926.34;;;11.92;62.40
41703;BME280;861;48.808;9.006;2024-03-02T09:35:45;95911.53;;;11.73;62.88
41703;BME280;861;48.808;9.006;2024-03-02T09:38:12;95915.56;;;12.04;61.08
41703;BME280;861;48.808;9.006;2024-03-02T09:40:41;95909.25;;;12.07;63.97
41703;BME280;861;48.808;9.006;2024-03-02T09:43:09;95913.03;;;12.65;60.31
41703;BME280;861;48.808;9.006;2024-03-02T09:45:37;95912.84;;;12.56;61.74
41703;BME280;861;48.808;9.006;2024-03-02T09:48:04;95913.38;;;12.83;62.74
41703;BME280;861;48.808;9.006;2024-03-02T09:50:31;95909.78;;;12.86;59.70
41703;BME280;861;48.808;9.006;2024-03-02T09:52:59;95916.81;;;13.19;59.42
41703;BME280;861;48.808;9.006;2024-03-02T09:55:26;95913.72;;;13.62;57.65
41703;BME280;861;48.808;9.006;2024-03-02T09:57:52;95902.69;;;13.37;57.46
41703;BME280;861;48.808;9.006;2024-03-02T10:00:19;95902.88;;;13.58;57.01
41703;BME280;861;48.808;9.006;2024-03-02T10:02:46;95910.22;;;13.33;57.03
41703;BME280;861;48.808;9.006;2024-03-02T10:05:25;95912.25;;;13.29;58.67
41703;BME280;861;48.808;9.006;2024-03-02T10:08:04;95903.34;;;13.69;58.22
41703;BME280;861;48.808;9.006;2024-03-02T10:10:42;95897.78;;;14.14;56.47
41703;BME280;861;48.808;9.006;2024-03-02T10:13:12;95892.19;;;14.18;56.45
41703;BME280;861;48.808;9.006;2024-03-02T10:15:41;95898.66;;;14.24;55.94
41703;BME280;861;48.808;9.006;2024-03-02T10:18:12;95895.88;;;14.40;55.22
41703;BME280;861;48.808;9.006;2024-03-02T10:20:41;95890.81;;;14.51;55.07
41703;BME280;861;48.808;9.006;2024-03-02T10:23:16;95883.59;;;14.57;55.97
41703;BME280;861;48.808;9.006;2024-03-02T10:25:45;95884.63;;;15.09;54.45
41703;BME280;861;48.808;9.006;2024-03-02T10:28:11;95883.78;;;15.34;52.03
41703;BME280;861;48.808;9.006;2024-03-02T10:30:38;95876.84;;;14.95;54.76
41703;BME280;861;48.808;9.006;2024-03-02T10:33:06;95886.84;;;14.77;54.11
41703;BME280;861;48.808;9.006;2024-03-02T10:35:34;95881.06;;;14.62;51.85
41703;BME280;861;48.808;9.006;2024-03-02T10:38:05;95880.25;;;14.99;51.10
41703;BME280;861;48.808;9.006;2024-03-02T10:40:32;95882.22;;;14.99;52.64
41703;BME280;861;48.808;9.006;2024-03-02T10:43:01;95872.44;;;15.10;50.38
41703;BME280;861;48.808;9.006;2024-03-02T10:45:32;95864.63;;;15.21;51.88
41703;BME280;861;48.808;9.006;2024-03-02T10:47:59;95868.03;;;15.60;51.22
41703;BME280;861;48.808;9.006;2024-03-02T10:50:28;95864.41;;;15.93;49.16
41703;BME280;861;48.808;9.006;2024-03-02T10:52:55;95858.28;;;16.11;49.81
41703;BME280;861;48.808;9.006;2024-03-02T10:55:21;95859.00;;;16.33;49.28
41703;BME280;861;48.808;9.006;2024-03-02T10:57:54;95856.88;;;16.06;48.41
41703;BME280;861;48.808;9.006;2024-03-02T11:00:25;95863.97;;;15.95;48.38
41703;BME280;861;48.808;9.006;2024-03-02T11:03:06;95857.59;;;15.98;48.75
41703;BME280;861;48.808;9.006;2024-03-02T11:05:44;95854.25;;;16.03;49.17
41703;BME280;861;48.808;9.006;2024-03-02T11:08:19;95845.06;;;16.49;47.88
41703;BME280;861;48.808;9.006;2024-03-02T11:10:58;95847.56;;;16.74;48.81
41703;BME280;861;48.808;9.006;2024-03-02T11:13:34;95839.53;;;16.98;48.01
41703;BME280;861;48.808;9.006;2024-03-02T11:16:37;95844.94;;;17.28;48.48
41703;BME280;861;48.808;9.006;2024-03-02T11:19:12;95836.03;;;17.24;47.00
41703;BME280;861;48.808;9.006;2024-03-02T11:21:41;95827.59;;;16.92;46.72
41703;BME280;861;48.808;9.006;2024-03-02T11:26:52;95825.81;;;17.34;48.09
41703;BME280;861;48.808;9.006;2024-03-02T11:32:05;95807.88;;;17.92;47.55
41703;BME280;861;48.808;9.006;2024-03-02T11:34:35;95799.50;;;18.28;45.71
41703;BME280;861;48.808;9.006;2024-03-02T11:37:06;95802.91;;;18.14;47.41
41703;BME280;861;48.808;9.006;2024-03-02T11:39:33;95798.13;;;18.66;45.69
41703;BME280;861;48.808;9.006;2024-03-02T11:42:00;95793.97;;;18.28;43.19
41703;BME280;861;48.808;9.006;2024-03-02T11:44:28;95795.03;;;18.31;44.58
41703;BME280;861;48.808;9.006;2024-03-02T11:47:02;95795.69;;;18.26;45.03
41703;BME280;861;48.808;9.006;2024-03-02T11:49:41;95803.75;;;17.88;45.20
41703;BME280;861;48.808;9.006;2024-03-02T11:52:16;95789.19;;;17.96;45.76
41703;BME280;861;48.808;9.006;2024-03-02T11:54:46;95786.22;;;18.18;45.01
41703;BME280;861;48.808;9.006;2024-03-02T11:57:22;95795.34;;;17.91;43.52
41703;BME280;861;48.808;9.006;2024-03-02T11:59:49;95776.88;;;18.24;44.41
41703;BME280;861;48.808;9.006;2024-03-02T12:02:21;95768.44;;;18.19;42.83
41703;BME280;861;48.808;9.006;2024-03-02T12:04:49;95766.13;;;18.26;43.54
41703;BME280;861;48.808;9.006;2024-03-02T12:07:24;95760.34;;;18.57;43.51
41703;BME280;861;48.808;9.006;2024-03-02T12:10:01;95766.53;;;18.43;43.15
41703;BME280;861;48.808;9.006;2024-03-02T12:12:29;95751.41;;;18.39;44.08
41703;BME280;861;48.808;9.006;2024-03-02T12:14:55;95748.97;;;18.88;43.25
41703;BME280;861;48.808;9.006;2024-03-02T12:17:23;95754.75;;;18.90;44.64
41703;BME280;861;48.808;9.006;2024-03-02T12:19:50;95761.56;;;19.41;44.02
41703;BME280;861;48.808;9.006;2024-03-02T12:22:16;95756.66;;;19.74;42.45
41703;BME280;861;48.808;9.006;2024-03-02T12:24:44;95747.22;;;20.10;42.55
41703;BME280;861;48.808;9.006;2024-03-02T12:27:14;95752.56;;;19.99;41.09
41703;BME280;861;48.808;9.006;2024-03-02T12:29:42;95747.63;;;19.89;41.42
41703;BME280;861;48.808;9.006;2024-03-02T12:32:09;95747.22;;;20.10;41.47
41703;BME280;861;48.808;9.006;2024-03-02T12:34:38;95736.38;;;20.41;41.80
41703;BME280;861;48.808;9.006;2024-03-02T12:37:05;95733.25;;;20.68;40.99
41703;BME280;861;48.808;9.006;2024-03-02T12:39:32;95738.94;;;20.79;40.58
41703;BME280;861;48.808;9.006;2024-03-02T12:41:59;95729.56;;;20.08;38.56
41703;BME280;861;48.808;9.006;2024-03-02T12:44:25;95740.66;;;20.42;39.67
41703;BME280;861;48.808;9.006;2024-03-02T12:46:52;95732.47;;;20.48;37.98
41703;BME280;861;48.808;9.006;2024-03-02T12:49:23;95731.22;;;20.49;38.99
41703;BME280;861;48.808;9.006;2024-03-02T12:51:50;95726.25;;;20.18;39.89
41703;BME280;861;48.808;9.006;2024-03-02T12:54:23;95719.47;;;20.05;39.54
41703;BME280;861;48.808;9.006;2024-03-02T12:56:51;95717.47;;;20.05;40.30
41703;BME280;861;48.808;9.006;2024-03-02T12:59:23;95716.59;;;20.28;39.40
41703;BME280;861;48.808;9.006;2024-03-02T13:01:56;95719.97;;;20.18;41.48
41703;BME280;861;48.808;9.006;2024-03-02T13:04:28;95714.47;;;19.89;39.28
41703;BME280;861;48.808;9.006;2024-03-02T13:06:56;95707.69;;;19.90;38.95
41703;BME280;861;48.808;9.006;2024-03-02T13:09:24;95712.91;;;20.17;39.38
41703;BME280;861;48.808;9.006;2024-03-02T13:11:51;95712.94;;;20.37;38.79
41703;BME280;861;48.808;9.006;2024-03-02T13:14:21;95707.38;;;20.17;39.69
41703;BME280;861;48.808;9.006;2024-03-02T13:16:48;95709.09;;;20.49;38.72
41703;BME280;861;48.808;9.006;2024-03-02T13:19:17;95708.16;;;20.72;38.44
41703;BME280;861;48.808;9.006;2024-03-02T13:21:45;95702.97;;;20.99;39.26
41703;BME280;861;48.808;9.006;2024-03-02T13:24:12;95710.34;;;20.88;39.10
41703;BME280;861;48.808;9.006;2024-03-02T13:26:39;95701.72;;;21.20;37.82
41703;BME280;861;48.808;9.006;2024-03-02T13:29:06;95703.31;;;20.87;38.86
41703;BME280;861;48.808;9.006;2024-03-02T13:31:34;95704.59;;;20.91;38.88
41703;BME280;861;48.808;9.006;2024-03-02T13:34:00;95696.47;;;21.02;39.23
41703;BME280;861;48.808;9.006;2024-03-02T13:36:27;95696.16;;;20.80;39.39
41703;BME280;861;48.808;9.006;2024-03-02T13:38:53;95701.50;;;20.84;38.57
41703;BME280;861;48.808;9.006;2024-03-02T13:41:20;95691.75;;;20.48;39.75
41703;BME280;861;48.808;9.006;2024-03-02T13:43:47;95690.19;;;20.27;39.91
41703;BME280;861;48.808;9.006;2024-03-02T13:46:14;95685.22;;;19.82;40.59
41703;BME280;861;48.808;9.006;2024-03-02T13:48:41;95686.38;;;19.61;41.00
41703;BME280;861;48.808;9.006;2024-03-02T13:51:07;95682.19;;;19.36;40.17